createdAt,value
2022-11-24T00:01:29.474Z,12.90
2022-11-24T00:04:03.308Z,12.90
2022-11-24T00:06:34.666Z,12.90
2022-11-24T00:09:04.545Z,13.00
2022-11-24T00:11:35.263Z,12.90
2022-11-24T00:14:04.949Z,13.00
2022-11-24T00:16:36.065Z,13.00
2022-11-24T00:19:06.373Z,12.90
2022-11-24T00:21:34.391Z,12.90
2022-11-24T00:24:03.073Z,12.90
2022-11-24T00:26:33.508Z,12.80
2022-11-24T00:29:05.564Z,12.80
2022-11-24T00:31:42.434Z,12.70
2022-11-24T00:34:15.430Z,12.60
2022-11-24T00:36:43.910Z,12.60
2022-11-24T00:39:16.196Z,12.60
2022-11-24T00:41:44.605Z,12.60
2022-11-24T00:44:12.505Z,12.60
2022-11-24T00:46:40.829Z,12.60
2022-11-24T00:49:09.200Z,12.60
2022-11-24T00:51:37.323Z,12.60
2022-11-24T00:54:07.074Z,12.60
2022-11-24T00:56:35.269Z,12.50
2022-11-24T00:59:03.247Z,12.50
2022-11-24T01:01:32.133Z,12.50
2022-11-24T01:04:04.224Z,12.40
2022-11-24T01:06:33.340Z,12.40
2022-11-24T01:09:01.226Z,12.40
2022-11-24T01:11:54.890Z,12.40
2022-11-24T01:14:25.825Z,12.40
2022-11-24T01:16:54.929Z,12.40
2022-11-24T01:19:23.401Z,12.40
2022-11-24T01:21:51.928Z,12.40
2022-11-24T01:24:20.316Z,12.40
2022-11-24T01:26:48.387Z,12.30
2022-11-24T01:29:16.433Z,12.30
2022-11-24T01:31:44.957Z,12.30
2022-11-24T01:34:13.924Z,12.30
2022-11-24T01:36:42.070Z,12.30
2022-11-24T01:39:10.036Z,12.30
2022-11-24T01:41:38.476Z,12.30
2022-11-24T01:44:29.955Z,12.30
2022-11-24T01:47:29.597Z,12.20
2022-11-24T01:50:00.809Z,12.20
2022-11-24T01:52:39.154Z,12.10
2022-11-24T01:55:12.461Z,12.10
2022-11-24T01:57:46.210Z,12.10
2022-11-24T02:00:15.971Z,12.10
2022-11-24T02:02:45.711Z,12.20
2022-11-24T02:05:31.613Z,12.20
2022-11-24T02:08:02.180Z,12.20
2022-11-24T02:10:30.952Z,12.20
2022-11-24T02:13:01.413Z,12.20
2022-11-24T02:15:29.750Z,12.20
2022-11-24T02:17:59.586Z,12.10
2022-11-24T02:20:28.305Z,12.10
2022-11-24T02:23:23.193Z,12.10
2022-11-24T02:26:05.614Z,12.10
2022-11-24T02:28:34.430Z,12.10
2022-11-24T02:31:04.086Z,12.10
2022-11-24T02:33:33.580Z,12.10
2022-11-24T02:36:01.522Z,12.10
2022-11-24T02:38:36.710Z,12.20
2022-11-24T02:41:08.978Z,12.10
2022-11-24T02:43:41.446Z,12.10
2022-11-24T02:46:11.571Z,12.10
2022-11-24T02:48:40.004Z,12.10
2022-11-24T02:51:08.073Z,12.10
2022-11-24T02:53:36.693Z,12.10
2022-11-24T02:56:05.360Z,12.00
2022-11-24T02:58:33.487Z,12.10
2022-11-24T03:01:01.391Z,12.10
2022-11-24T03:03:29.617Z,12.10
2022-11-24T03:05:57.622Z,12.10
2022-11-24T03:08:25.717Z,12.10
2022-11-24T03:10:53.855Z,12.10
2022-11-24T03:13:22.090Z,12.00
2022-11-24T03:15:50.090Z,12.00
2022-11-24T03:18:18.413Z,12.10
2022-11-24T03:20:46.523Z,12.00
2022-11-24T03:23:14.532Z,12.00
2022-11-24T03:25:42.686Z,12.00
2022-11-24T03:28:10.993Z,12.00
2022-11-24T03:30:38.905Z,12.00
2022-11-24T03:33:07.805Z,12.00
2022-11-24T03:35:35.751Z,11.90
2022-11-24T03:38:04.055Z,11.90
2022-11-24T03:40:32.146Z,11.90
2022-11-24T03:43:00.257Z,11.90
2022-11-24T03:48:18.435Z,11.90
2022-11-24T03:50:55.572Z,12.00
2022-11-24T03:53:24.568Z,12.00
2022-11-24T03:55:52.751Z,12.00
2022-11-24T03:58:21.324Z,12.10
2022-11-24T04:00:50.572Z,12.10
2022-11-24T04:03:19.694Z,12.10
2022-11-24T04:05:48.605Z,12.10
2022-11-24T04:08:17.324Z,12.10
2022-11-24T04:10:45.303Z,12.10
2022-11-24T04:13:15.977Z,12.10
2022-11-24T04:15:44.701Z,12.00
2022-11-24T04:18:14.308Z,12.10
2022-11-24T04:20:43.227Z,12.10
2022-11-24T04:23:11.943Z,12.10
2022-11-24T04:25:41.886Z,12.00
2022-11-24T04:28:10.624Z,12.00
2022-11-24T04:30:40.744Z,12.00
2022-11-24T04:33:10.337Z,12.00
2022-11-24T04:35:38.462Z,12.00
2022-11-24T04:38:06.361Z,12.00
2022-11-24T04:40:35.336Z,12.00
2022-11-24T04:43:03.302Z,12.00
2022-11-24T04:45:31.373Z,11.90
2022-11-24T04:47:59.390Z,11.90
2022-11-24T04:50:27.876Z,11.90
2022-11-24T04:52:55.851Z,11.90
2022-11-24T04:55:24.268Z,11.90
2022-11-24T04:57:52.157Z,11.90
2022-11-24T05:00:20.912Z,11.90
2022-11-24T05:02:49.063Z,11.90
2022-11-24T05:05:17.309Z,11.90
2022-11-24T05:07:45.310Z,11.90
2022-11-24T05:10:31.817Z,11.90
2022-11-24T05:13:00.049Z,11.90
2022-11-24T05:15:28.250Z,11.90
2022-11-24T05:17:57.528Z,11.80
2022-11-24T05:20:25.698Z,11.80
2022-11-24T05:22:53.918Z,11.80
2022-11-24T05:25:22.064Z,11.80
2022-11-24T05:27:50.284Z,11.90
2022-11-24T05:30:18.180Z,11.80
2022-11-24T05:32:46.694Z,11.80
2022-11-24T05:35:14.685Z,11.80
2022-11-24T05:37:42.950Z,11.80
2022-11-24T05:40:11.232Z,11.80
2022-11-24T05:42:46.555Z,11.80
2022-11-24T05:45:20.549Z,11.80
2022-11-24T05:47:50.197Z,11.80
2022-11-24T05:50:21.631Z,11.80
2022-11-24T05:52:50.607Z,11.90
2022-11-24T05:55:19.892Z,11.90
2022-11-24T05:57:48.164Z,11.90
2022-11-24T06:00:20.589Z,11.90
2022-11-24T06:02:49.222Z,12.00
2022-11-24T06:05:17.755Z,11.90
2022-11-24T06:07:46.184Z,12.00
2022-11-24T06:10:15.220Z,12.10
2022-11-24T06:12:43.457Z,12.10
2022-11-24T06:15:12.723Z,12.20
2022-11-24T06:17:41.430Z,12.20
2022-11-24T06:20:11.003Z,12.30
2022-11-24T06:22:39.290Z,12.40
2022-11-24T06:25:07.548Z,12.50
2022-11-24T06:27:36.676Z,12.60
2022-11-24T06:30:05.337Z,12.70
2022-11-24T06:32:33.539Z,12.70
2022-11-24T06:35:01.459Z,12.80
2022-11-24T06:37:29.640Z,12.80
2022-11-24T06:39:57.707Z,12.80
2022-11-24T06:42:25.863Z,12.80
2022-11-24T06:44:53.788Z,12.80
2022-11-24T06:47:22.105Z,12.80
2022-11-24T06:49:49.987Z,12.90
2022-11-24T06:52:17.972Z,13.20
2022-11-24T06:54:45.969Z,13.40
2022-11-24T06:57:14.031Z,13.60
2022-11-24T06:59:41.960Z,13.60
2022-11-24T07:02:11.415Z,13.70
2022-11-24T07:04:39.271Z,13.80
2022-11-24T07:07:10.196Z,14.00
2022-11-24T07:09:38.378Z,14.20
2022-11-24T07:12:06.614Z,14.30
2022-11-24T07:14:34.938Z,14.60
2022-11-24T07:17:05.166Z,14.90
2022-11-24T07:19:33.239Z,15.20
2022-11-24T07:22:01.099Z,15.60
2022-11-24T07:24:29.210Z,15.90
2022-11-24T07:26:57.100Z,16.20
2022-11-24T07:29:25.135Z,16.50
2022-11-24T07:31:53.711Z,16.80
2022-11-24T07:34:22.097Z,17.00
2022-11-24T07:36:50.774Z,17.30
2022-11-24T07:39:19.248Z,17.50
2022-11-24T07:41:47.145Z,17.60
2022-11-24T07:44:16.140Z,17.90
2022-11-24T07:46:44.271Z,18.10
2022-11-24T07:49:12.610Z,18.30
2022-11-24T07:51:40.736Z,18.50
2022-11-24T07:54:08.997Z,18.70
2022-11-24T07:56:36.849Z,18.90
2022-11-24T07:59:05.051Z,19.20
2022-11-24T08:01:33.316Z,19.30
2022-11-24T08:04:02.961Z,19.40
2022-11-24T08:06:39.808Z,19.60
2022-11-24T08:09:10.757Z,19.80
2022-11-24T08:11:38.726Z,20.10
2022-11-24T08:14:06.886Z,20.40
2022-11-24T08:16:34.887Z,20.70
2022-11-24T08:19:02.906Z,21.00
2022-11-24T08:21:30.787Z,21.20
2022-11-24T08:23:59.091Z,21.40
2022-11-24T08:26:27.476Z,21.40
2022-11-24T08:28:58.790Z,21.70
2022-11-24T08:31:33.931Z,21.60
2022-11-24T08:34:04.700Z,21.90
2022-11-24T08:36:34.092Z,22.00
2022-11-24T08:39:05.277Z,22.30
2022-11-24T08:41:33.917Z,22.70
2022-11-24T08:44:04.829Z,23.00
2022-11-24T08:46:32.930Z,23.10
2022-11-24T08:49:00.755Z,23.00
2022-11-24T08:51:29.417Z,22.50
2022-11-24T08:53:59.173Z,22.40
2022-11-24T08:56:33.337Z,22.40
2022-11-24T08:59:02.681Z,22.50
2022-11-24T09:01:31.122Z,22.20
2022-11-24T09:03:59.334Z,22.40
2022-11-24T09:06:31.207Z,22.30
2022-11-24T09:09:00.513Z,22.40
2022-11-24T09:11:29.164Z,22.70
2022-11-24T09:13:57.351Z,22.70
2022-11-24T09:16:28.111Z,22.70
2022-11-24T09:18:59.847Z,23.00
2022-11-24T09:21:28.461Z,23.50
2022-11-24T09:23:57.584Z,23.90
2022-11-24T09:26:44.600Z,24.70
2022-11-24T09:29:15.702Z,25.50
2022-11-24T09:31:44.140Z,25.80
2022-11-24T09:34:15.937Z,26.60
2022-11-24T09:36:44.290Z,27.00
2022-11-24T09:39:12.844Z,27.50
2022-11-24T09:41:55.334Z,27.70
2022-11-24T09:45:07.717Z,28.10
2022-11-24T09:47:57.823Z,28.50
2022-11-24T09:50:31.210Z,28.70
2022-11-24T09:53:14.643Z,29.20
2022-11-24T09:55:55.273Z,29.50
2022-11-24T09:58:42.030Z,29.90
2022-11-24T10:01:17.945Z,30.20
2022-11-24T10:03:54.245Z,29.50
2022-11-24T10:06:50.814Z,29.50
2022-11-24T10:09:37.650Z,29.60
2022-11-24T10:12:14.012Z,30.10
2022-11-24T10:14:56.925Z,30.80
2022-11-24T10:18:10.557Z,31.00
2022-11-24T10:21:26.250Z,31.10
2022-11-24T10:24:24.941Z,30.40
2022-11-24T10:27:02.616Z,29.70
2022-11-24T10:29:42.461Z,29.90
2022-11-24T10:32:38.959Z,30.70
2022-11-24T10:35:28.678Z,31.60
2022-11-24T10:38:12.731Z,32.40
2022-11-24T10:41:03.751Z,32.40
2022-11-24T10:43:32.059Z,32.40
2022-11-24T10:46:14.418Z,33.00
2022-11-24T10:48:52.225Z,32.30
2022-11-24T10:51:41.862Z,33.20
2022-11-24T10:54:22.600Z,33.90
2022-11-24T10:56:55.308Z,34.30
2022-11-24T10:59:26.058Z,34.60
2022-11-24T11:01:54.662Z,34.10
2022-11-24T11:04:28.404Z,34.60
2022-11-24T11:07:17.950Z,33.60
2022-11-24T11:09:47.825Z,34.70
2022-11-24T11:12:46.152Z,36.20
2022-11-24T11:15:30.672Z,36.60
2022-11-24T11:18:01.942Z,36.80
2022-11-24T11:20:35.735Z,36.80
2022-11-24T11:23:21.698Z,36.80
2022-11-24T11:25:50.419Z,37.20
2022-11-24T11:28:18.809Z,36.40
2022-11-24T11:34:06.200Z,36.80
2022-11-24T11:36:37.081Z,36.10
2022-11-24T11:39:05.772Z,33.20
2022-11-24T11:41:40.493Z,31.20
2022-11-24T11:44:14.599Z,29.70
2022-11-24T11:46:44.416Z,28.90
2022-11-24T11:49:13.963Z,27.90
2022-11-24T11:51:49.922Z,26.90
2022-11-24T11:54:30.046Z,26.10
2022-11-24T11:57:09.538Z,26.10
2022-11-24T12:00:00.985Z,26.00
2022-11-24T12:02:44.778Z,25.50
2022-11-24T12:05:44.893Z,24.80
2022-11-24T12:08:56.045Z,24.20
2022-11-24T12:11:32.524Z,24.60
2022-11-24T12:14:20.753Z,25.50
2022-11-24T12:17:11.913Z,25.20
2022-11-24T12:19:52.421Z,26.50
2022-11-24T12:22:47.014Z,29.30
2022-11-24T12:25:36.905Z,30.90
2022-11-24T12:28:20.438Z,31.70
2022-11-24T12:31:07.641Z,33.40
2022-11-24T12:34:06.246Z,35.20
2022-11-24T12:37:01.508Z,36.70
2022-11-24T12:39:36.221Z,37.50
2022-11-24T12:42:16.178Z,37.40
2022-11-24T12:45:08.870Z,37.50
2022-11-24T12:48:14.050Z,37.50
2022-11-24T12:50:44.599Z,37.80
2022-11-24T12:53:27.007Z,37.60
2022-11-24T12:55:58.499Z,38.30
2022-11-24T12:58:39.978Z,38.70
2022-11-24T13:01:32.421Z,36.90
2022-11-24T13:04:38.242Z,35.40
2022-11-24T13:07:18.865Z,33.20
2022-11-24T13:10:40.423Z,29.80
2022-11-24T13:13:14.106Z,31.10
2022-11-24T13:16:20.712Z,32.40
2022-11-24T13:19:00.415Z,32.70
2022-11-24T13:21:31.608Z,32.20
2022-11-24T13:24:02.448Z,32.50
2022-11-24T13:26:41.487Z,32.70
2022-11-24T13:29:28.684Z,33.40
2022-11-24T13:32:18.170Z,32.70
2022-11-24T13:34:46.112Z,31.90
2022-11-24T13:37:31.833Z,32.20
2022-11-24T13:40:24.242Z,33.30
2022-11-24T13:42:58.043Z,30.10
2022-11-24T13:45:42.044Z,27.70
2022-11-24T13:48:22.564Z,27.50
2022-11-24T13:50:51.240Z,27.20
2022-11-24T13:53:45.144Z,27.60
2022-11-24T13:56:13.057Z,28.40
2022-11-24T13:58:52.866Z,28.50
2022-11-24T14:01:36.310Z,27.00
2022-11-24T14:04:32.910Z,26.20
2022-11-24T14:07:11.232Z,25.30
2022-11-24T14:09:51.782Z,24.50
2022-11-24T14:12:27.064Z,23.40
2022-11-24T14:15:13.831Z,22.60
2022-11-24T14:17:41.647Z,21.90
2022-11-24T14:20:25.428Z,21.60
2022-11-24T14:22:54.761Z,21.40
2022-11-24T14:25:33.193Z,21.30
2022-11-24T14:28:01.543Z,21.10
2022-11-24T14:30:29.517Z,20.80
2022-11-24T14:32:59.681Z,20.50
2022-11-24T14:35:43.164Z,20.20
2022-11-24T14:38:13.106Z,20.00
2022-11-24T14:40:42.954Z,19.80
2022-11-24T14:43:24.492Z,19.70
2022-11-24T14:45:55.062Z,19.70
2022-11-24T14:48:37.125Z,19.80
2022-11-24T14:51:30.843Z,19.80
2022-11-24T14:54:14.604Z,19.60
2022-11-24T14:57:01.531Z,19.40
2022-11-24T14:59:31.320Z,19.30
2022-11-24T15:02:00.061Z,19.40
2022-11-24T15:05:00.767Z,19.60
2022-11-24T15:07:29.574Z,19.50
2022-11-24T15:10:03.275Z,19.60
2022-11-24T15:12:31.221Z,19.50
2022-11-24T15:15:05.533Z,19.60
2022-11-24T15:17:33.972Z,19.50
2022-11-24T15:20:10.184Z,19.50
2022-11-24T15:22:45.047Z,19.30
2022-11-24T15:25:28.104Z,19.30
2022-11-24T15:27:59.688Z,19.20
2022-11-24T15:30:28.858Z,19.10
2022-11-24T15:32:58.942Z,19.10
2022-11-24T15:35:32.022Z,19.00
2022-11-24T15:38:00.207Z,18.90
2022-11-24T15:40:28.149Z,18.90
2022-11-24T15:43:00.766Z,18.90
2022-11-24T15:45:29.924Z,18.70
2022-11-24T15:47:57.849Z,18.70
2022-11-24T15:50:26.034Z,18.50
2022-11-24T15:52:53.835Z,18.40
2022-11-24T15:55:23.209Z,18.30
2022-11-24T15:57:51.315Z,18.20
2022-11-24T16:00:22.555Z,18.10
2022-11-24T16:02:50.900Z,18.00
2022-11-24T16:05:18.889Z,17.90
2022-11-24T16:07:46.873Z,17.80
2022-11-24T16:10:41.340Z,17.80
2022-11-24T16:13:12.912Z,17.80
2022-11-24T16:15:40.916Z,17.70
2022-11-24T16:18:08.717Z,17.60
2022-11-24T16:20:36.882Z,17.60
2022-11-24T16:23:05.414Z,17.50
2022-11-24T16:25:33.466Z,17.50
2022-11-24T16:28:01.380Z,17.50
2022-11-24T16:30:30.378Z,17.50
2022-11-24T16:32:58.356Z,17.40
2022-11-24T16:35:26.591Z,17.40
2022-11-24T16:37:54.466Z,17.40
2022-11-24T16:40:22.341Z,17.40
2022-11-24T16:42:50.211Z,17.30
2022-11-24T16:45:18.389Z,17.30
2022-11-24T16:47:46.334Z,17.30
2022-11-24T16:50:14.435Z,17.30
2022-11-24T16:52:42.411Z,17.20
2022-11-24T16:55:12.068Z,17.20
2022-11-24T16:57:42.228Z,17.20
2022-11-24T17:00:11.665Z,17.10
2022-11-24T17:02:39.618Z,17.00
2022-11-24T17:05:08.152Z,17.00
2022-11-24T17:07:36.127Z,17.00
2022-11-24T17:10:04.448Z,16.90
2022-11-24T17:12:32.251Z,16.90
2022-11-24T17:15:32.514Z,16.90
2022-11-24T17:18:08.726Z,16.90
2022-11-24T17:20:41.487Z,16.80
2022-11-24T17:23:09.489Z,16.80
2022-11-24T17:25:37.408Z,16.80
2022-11-24T17:28:05.476Z,16.70
2022-11-24T17:30:34.314Z,16.70
2022-11-24T17:33:02.297Z,16.60
2022-11-24T17:35:30.193Z,16.60
2022-11-24T17:37:58.924Z,16.60
2022-11-24T17:40:28.784Z,16.50
2022-11-24T17:43:00.836Z,16.50
2022-11-24T17:45:31.034Z,16.50
2022-11-24T17:48:02.180Z,16.40
2022-11-24T17:50:30.222Z,16.40
2022-11-24T17:52:58.947Z,16.40
2022-11-24T17:55:26.970Z,16.30
2022-11-24T17:57:56.235Z,16.30
2022-11-24T18:00:24.506Z,16.30
2022-11-24T18:02:52.518Z,16.20
2022-11-24T18:05:21.692Z,16.20
2022-11-24T18:07:49.816Z,16.20
2022-11-24T18:10:17.915Z,16.20
2022-11-24T18:12:46.179Z,16.20
2022-11-24T18:15:14.347Z,16.20
2022-11-24T18:17:42.364Z,16.20
2022-11-24T18:20:11.031Z,16.10
2022-11-24T18:25:27.376Z,16.10
2022-11-24T18:27:55.459Z,16.10
2022-11-24T18:30:24.468Z,16.10
2022-11-24T18:32:52.466Z,16.10
2022-11-24T18:35:20.581Z,16.00
2022-11-24T18:37:48.461Z,16.00
2022-11-24T18:40:16.481Z,16.00
2022-11-24T18:42:44.495Z,16.00
2022-11-24T18:45:12.760Z,15.90
2022-11-24T18:47:44.189Z,15.90
2022-11-24T18:50:12.336Z,15.90
2022-11-24T18:52:40.313Z,15.80
2022-11-24T18:55:08.525Z,15.80
2022-11-24T18:57:36.517Z,15.70
2022-11-24T19:00:05.704Z,15.70
2022-11-24T19:02:33.633Z,15.70
2022-11-24T19:05:01.770Z,15.70
2022-11-24T19:07:29.647Z,15.70
2022-11-24T19:09:59.988Z,15.70
2022-11-24T19:12:28.347Z,15.70
2022-11-24T19:14:56.308Z,15.70
2022-11-24T19:17:24.197Z,15.70
2022-11-24T19:19:52.246Z,15.60
2022-11-24T19:22:22.295Z,15.60
2022-11-24T19:24:51.343Z,15.60
2022-11-24T19:27:21.963Z,15.60
2022-11-24T19:29:51.309Z,15.60
2022-11-24T19:32:19.933Z,15.60
2022-11-24T19:34:48.048Z,15.50
2022-11-24T19:37:16.497Z,15.50
2022-11-24T19:39:44.518Z,15.50
2022-11-24T19:42:12.722Z,15.40
2022-11-24T19:44:40.748Z,15.40
2022-11-24T19:47:08.992Z,15.30
2022-11-24T19:49:37.153Z,15.30
2022-11-24T19:52:08.232Z,15.30
2022-11-24T19:54:36.534Z,15.20
2022-11-24T19:57:07.833Z,15.30
2022-11-24T19:59:35.801Z,15.30
2022-11-24T20:02:04.223Z,15.30
2022-11-24T20:04:33.819Z,15.30
2022-11-24T20:07:01.942Z,15.30
2022-11-24T20:09:30.168Z,15.20
2022-11-24T20:11:59.182Z,15.20
2022-11-24T20:14:27.576Z,15.20
2022-11-24T20:16:55.544Z,15.10
2022-11-24T20:19:23.604Z,15.10
2022-11-24T20:21:53.420Z,14.90
2022-11-24T20:24:25.606Z,14.80
2022-11-24T20:27:00.665Z,14.70
2022-11-24T20:29:29.783Z,14.70
2022-11-24T20:32:00.375Z,14.60
2022-11-24T20:34:32.216Z,14.60
2022-11-24T20:37:00.128Z,14.60
2022-11-24T20:39:29.091Z,14.50
2022-11-24T20:41:58.495Z,14.50
2022-11-24T20:44:28.463Z,14.50
2022-11-24T20:47:00.348Z,14.40
2022-11-24T20:49:29.293Z,14.40
2022-11-24T20:52:00.103Z,14.40
2022-11-24T20:54:28.481Z,14.40
2022-11-24T20:56:56.481Z,14.40
2022-11-24T20:59:27.577Z,14.30
2022-11-24T21:01:55.902Z,14.30
2022-11-24T21:04:26.633Z,14.30
2022-11-24T21:06:55.360Z,14.30
2022-11-24T21:09:23.480Z,14.20
2022-11-24T21:11:51.521Z,14.20
2022-11-24T21:14:19.419Z,14.20
2022-11-24T21:16:47.963Z,14.10
2022-11-24T21:19:21.716Z,14.10
2022-11-24T21:21:50.552Z,14.10
2022-11-24T21:24:22.309Z,14.10
2022-11-24T21:26:53.050Z,14.00
2022-11-24T21:29:23.853Z,14.00
2022-11-24T21:31:52.655Z,14.00
2022-11-24T21:34:20.617Z,14.00
2022-11-24T21:36:48.674Z,14.00
2022-11-24T21:39:16.963Z,13.90
2022-11-24T21:41:45.681Z,13.90
2022-11-24T21:44:14.614Z,13.90
2022-11-24T21:46:51.130Z,13.90
2022-11-24T21:49:23.123Z,13.80
2022-11-24T21:51:56.100Z,13.80
2022-11-24T21:54:24.779Z,13.80
2022-11-24T21:56:54.602Z,13.80
2022-11-24T21:59:23.011Z,13.80
2022-11-24T22:01:50.955Z,13.70
2022-11-24T22:04:19.340Z,13.70
2022-11-24T22:06:47.217Z,13.60
2022-11-24T22:09:18.166Z,13.60
2022-11-24T22:11:46.979Z,13.50
2022-11-24T22:14:15.203Z,13.50
2022-11-24T22:16:43.289Z,13.50
2022-11-24T22:19:11.412Z,13.40
2022-11-24T22:21:39.379Z,13.40
2022-11-24T22:24:07.423Z,13.40
2022-11-24T22:26:36.309Z,13.40
2022-11-24T22:29:04.499Z,13.40
2022-11-24T22:31:34.318Z,13.40
2022-11-24T22:34:02.253Z,13.40
2022-11-24T22:36:30.717Z,13.40
2022-11-24T22:39:03.438Z,13.40
2022-11-24T22:41:36.112Z,13.40
2022-11-24T22:44:05.088Z,13.40
2022-11-24T22:46:33.211Z,13.40
2022-11-24T22:49:02.584Z,13.40
2022-11-24T22:51:33.805Z,13.40
2022-11-24T22:54:04.285Z,13.50
2022-11-24T22:56:33.576Z,13.50
2022-11-24T22:59:03.418Z,13.50
2022-11-24T23:01:34.214Z,13.50
2022-11-24T23:04:04.164Z,13.50
2022-11-24T23:06:33.700Z,13.40
2022-11-24T23:09:02.914Z,13.40
2022-11-24T23:11:38.065Z,13.40
2022-11-24T23:14:14.076Z,13.30
2022-11-24T23:16:43.137Z,13.30
2022-11-24T23:19:11.259Z,13.20
2022-11-24T23:21:40.474Z,13.20
2022-11-24T23:24:11.684Z,13.20
2022-11-24T23:26:41.722Z,13.20
2022-11-24T23:29:15.176Z,13.20
2022-11-24T23:31:46.301Z,13.10
2022-11-24T23:34:14.083Z,13.10
2022-11-24T23:36:41.937Z,13.10
2022-11-24T23:39:13.050Z,13.00
2022-11-24T23:41:41.471Z,13.00
2022-11-24T23:44:09.380Z,13.00
2022-11-24T23:46:40.556Z,12.90
2022-11-24T23:49:08.436Z,12.90
2022-11-24T23:51:36.426Z,12.90
2022-11-24T23:54:10.140Z,12.90
2022-11-24T23:56:38.177Z,12.80
2022-11-24T23:59:06.320Z,12.80
